createdAt,value
2017-09-23T00:05:00.272Z,99.90
2017-09-23T00:10:02.012Z,99.90
2017-09-23T00:15:03.733Z,99.90
2017-09-23T00:20:05.464Z,99.90
2017-09-23T00:25:07.191Z,99.90
2017-09-23T00:30:08.891Z,99.90
2017-09-23T00:35:10.653Z,99.90
2017-09-23T00:40:12.391Z,99.90
2017-09-23T00:45:14.104Z,99.90
2017-09-23T00:50:15.875Z,99.90
2017-09-23T00:55:17.603Z,99.90
2017-09-23T01:00:19.355Z,99.90
2017-09-23T01:05:21.088Z,99.90
2017-09-23T01:10:22.869Z,99.90
2017-09-23T01:15:24.628Z,99.90
2017-09-23T01:20:26.395Z,99.90
2017-09-23T01:25:28.211Z,99.90
2017-09-23T01:30:29.987Z,99.90
2017-09-23T01:35:31.701Z,99.90
2017-09-23T01:40:34.165Z,99.90
2017-09-23T01:45:35.934Z,99.90
2017-09-23T01:50:37.642Z,99.90
2017-09-23T01:55:39.410Z,99.90
2017-09-23T02:00:41.877Z,99.90
2017-09-23T02:05:43.580Z,99.90
2017-09-23T02:10:46.032Z,99.90
2017-09-23T02:15:47.740Z,99.90
2017-09-23T02:20:49.480Z,99.90
2017-09-23T02:25:51.191Z,99.90
2017-09-23T02:30:53.662Z,99.90
2017-09-23T02:35:55.420Z,99.90
2017-09-23T02:41:12.138Z,99.90
2017-09-23T02:46:31.841Z,99.90
2017-09-23T02:51:51.233Z,99.90
2017-09-23T02:57:10.771Z,99.90
2017-09-23T03:02:29.908Z,99.90
2017-09-23T03:07:49.499Z,99.90
2017-09-23T03:13:08.859Z,99.90
2017-09-23T03:18:19.087Z,99.90
2017-09-23T03:23:21.543Z,99.90
2017-09-23T03:28:23.249Z,99.90
2017-09-23T03:33:25.740Z,99.90
2017-09-23T03:38:28.184Z,99.90
2017-09-23T03:43:29.931Z,99.90
2017-09-23T03:48:31.671Z,99.90
2017-09-23T03:53:33.371Z,99.90
2017-09-23T03:58:35.080Z,99.90
2017-09-23T04:03:36.790Z,99.90
2017-09-23T04:08:38.504Z,99.90
2017-09-23T04:13:40.213Z,99.90
2017-09-23T04:18:41.936Z,99.90
2017-09-23T04:23:43.720Z,99.90
2017-09-23T04:28:45.424Z,99.90
2017-09-23T04:33:47.136Z,99.90
2017-09-23T04:38:48.861Z,99.90
2017-09-23T04:43:50.581Z,99.90
2017-09-23T04:48:52.305Z,99.90
2017-09-23T04:53:54.040Z,99.90
2017-09-23T04:58:56.492Z,99.90
2017-09-23T05:03:58.206Z,99.90
2017-09-23T05:09:00.684Z,99.90
2017-09-23T05:14:03.148Z,99.90
2017-09-23T05:19:04.855Z,99.90
2017-09-23T05:24:06.567Z,99.90
2017-09-23T05:29:08.286Z,99.90
2017-09-23T05:34:10.003Z,99.90
2017-09-23T05:39:11.708Z,99.90
2017-09-23T05:44:13.419Z,99.90
2017-09-23T05:49:15.140Z,99.90
2017-09-23T05:54:16.915Z,99.90
2017-09-23T05:59:18.651Z,99.90
2017-09-23T06:04:21.176Z,99.90
2017-09-23T06:09:23.068Z,99.90
2017-09-23T06:14:24.808Z,99.90
2017-09-23T06:19:26.696Z,99.90
2017-09-23T06:24:28.572Z,99.90
2017-09-23T06:29:30.481Z,99.90
2017-09-23T06:34:32.195Z,98.70
2017-09-23T06:39:35.073Z,96.10
2017-09-23T06:44:36.788Z,94.70
2017-09-23T06:49:38.661Z,91.50
2017-09-23T06:54:40.572Z,88.10
2017-09-23T06:59:42.323Z,86.50
2017-09-23T07:04:44.227Z,83.10
2017-09-23T07:09:46.093Z,83.20
2017-09-23T07:14:47.952Z,81.70
2017-09-23T07:21:14.272Z,79.70
2017-09-23T07:26:17.269Z,77.50
2017-09-23T07:31:20.511Z,76.40
2017-09-23T07:36:22.895Z,73.00
2017-09-23T07:41:24.801Z,71.80
2017-09-23T07:46:27.008Z,71.00
2017-09-23T07:51:30.263Z,68.50
2017-09-23T07:56:32.841Z,67.60
2017-09-23T08:01:34.718Z,67.60
2017-09-23T08:06:36.672Z,66.50
2017-09-23T08:11:38.583Z,63.90
2017-09-23T08:16:40.453Z,61.30
2017-09-23T08:21:43.072Z,60.70
2017-09-23T08:26:46.397Z,59.30
2017-09-23T08:31:48.300Z,59.30
2017-09-23T08:36:50.216Z,57.40
2017-09-23T08:41:52.146Z,55.90
2017-09-23T08:46:53.958Z,56.20
2017-09-23T08:51:55.818Z,53.60
2017-09-23T08:56:57.721Z,52.40
2017-09-23T09:01:59.640Z,53.30
2017-09-23T09:07:01.621Z,53.30
2017-09-23T09:12:04.580Z,49.00
2017-09-23T09:17:06.676Z,51.50
2017-09-23T09:22:08.659Z,49.40
2017-09-23T09:27:10.652Z,48.30
2017-09-23T09:32:12.693Z,47.40
2017-09-23T09:37:14.598Z,45.90
2017-09-23T09:42:16.648Z,44.80
2017-09-23T09:47:19.572Z,44.50
2017-09-23T09:52:22.341Z,43.30
2017-09-23T09:57:24.535Z,43.30
2017-09-23T10:02:26.392Z,42.30
2017-09-23T10:07:28.252Z,42.50
2017-09-23T10:12:42.348Z,46.60
2017-09-23T10:17:44.146Z,49.00
2017-09-23T10:22:46.023Z,49.20
2017-09-23T10:27:48.543Z,51.80
2017-09-23T10:32:50.394Z,50.30
2017-09-23T10:37:52.355Z,51.30
2017-09-23T10:42:57.466Z,52.10
2017-09-23T10:48:01.669Z,51.10
2017-09-23T10:53:04.694Z,51.90
2017-09-23T10:58:07.870Z,52.40
2017-09-23T11:03:13.370Z,50.80
2017-09-23T11:08:15.668Z,50.70
2017-09-23T11:13:17.547Z,52.50
2017-09-23T11:18:19.492Z,53.50
2017-09-23T11:23:23.301Z,51.90
2017-09-23T11:28:27.491Z,51.90
2017-09-23T11:33:29.647Z,50.40
2017-09-23T11:38:49.064Z,53.90
2017-09-23T11:44:12.435Z,53.90
2017-09-23T12:00:53.915Z,50.40
2017-09-23T12:06:25.075Z,52.10
2017-09-23T12:17:24.364Z,50.70
2017-09-23T12:22:51.810Z,51.40
2017-09-23T12:28:19.643Z,51.20
2017-09-23T12:33:25.608Z,50.60
2017-09-23T12:38:27.597Z,50.30
2017-09-23T12:43:34.801Z,50.10
2017-09-23T12:48:36.901Z,50.00
2017-09-23T12:53:38.730Z,49.60
2017-09-23T12:58:40.643Z,51.80
2017-09-23T13:03:43.503Z,52.40
2017-09-23T13:08:45.380Z,52.90
2017-09-23T13:13:47.252Z,53.70
2017-09-23T13:18:49.120Z,53.90
2017-09-23T13:23:51.012Z,54.10
2017-09-23T13:28:52.881Z,55.20
2017-09-23T13:33:54.767Z,55.60
2017-09-23T13:38:56.596Z,54.70
2017-09-23T13:43:58.525Z,53.60
2017-09-23T13:49:00.388Z,53.90
2017-09-23T13:54:02.281Z,52.10
2017-09-23T13:59:04.093Z,55.80
2017-09-23T14:04:06.023Z,54.70
2017-09-23T14:09:07.904Z,52.70
2017-09-23T14:14:09.805Z,52.30
2017-09-23T14:19:11.656Z,52.10
2017-09-23T14:24:13.547Z,50.30
2017-09-23T14:29:15.380Z,52.70
2017-09-23T14:34:18.914Z,51.20
2017-09-23T14:39:20.781Z,51.10
2017-09-23T14:44:22.537Z,52.20
2017-09-23T14:49:24.328Z,54.20
2017-09-23T14:54:26.832Z,55.60
2017-09-23T14:59:28.769Z,55.50
2017-09-23T15:04:30.577Z,55.90
2017-09-23T15:09:34.105Z,55.20
2017-09-23T15:14:35.960Z,55.10
2017-09-23T15:19:38.512Z,54.90
2017-09-23T15:24:40.376Z,54.80
2017-09-23T15:29:42.208Z,54.30
2017-09-23T15:34:44.754Z,52.10
2017-09-23T15:39:46.532Z,52.10
2017-09-23T15:44:48.373Z,52.20
2017-09-23T15:49:50.241Z,52.20
2017-09-23T15:54:52.740Z,50.70
2017-09-23T15:59:54.647Z,50.70
2017-09-23T16:04:56.531Z,52.20
2017-09-23T16:09:58.401Z,52.90
2017-09-23T16:15:00.238Z,53.90
2017-09-23T16:20:02.760Z,55.10
2017-09-23T16:25:04.616Z,55.10
2017-09-23T16:30:06.500Z,57.00
2017-09-23T16:35:08.356Z,58.20
2017-09-23T16:40:10.236Z,58.60
2017-09-23T16:45:12.046Z,58.10
2017-09-23T16:50:13.905Z,59.60
2017-09-23T16:55:15.781Z,60.70
2017-09-23T17:00:17.601Z,65.50
2017-09-23T17:05:19.438Z,64.00
2017-09-23T17:10:21.312Z,65.60
2017-09-23T17:15:23.285Z,64.80
2017-09-23T17:20:25.873Z,68.90
2017-09-23T17:25:30.406Z,69.50
2017-09-23T17:30:32.893Z,70.00
2017-09-23T17:35:34.792Z,69.90
2017-09-23T17:40:37.265Z,71.00
2017-09-23T17:45:52.378Z,71.70
2017-09-23T17:51:16.448Z,71.70
2017-09-23T17:56:40.113Z,72.20
2017-09-23T18:02:06.602Z,75.60
2017-09-23T18:07:31.139Z,76.20
2017-09-23T18:18:25.313Z,76.20
2017-09-23T18:23:47.869Z,77.20
2017-09-23T18:28:55.256Z,78.80
2017-09-23T18:33:57.210Z,78.00
2017-09-23T18:38:59.088Z,78.10
2017-09-23T18:44:01.146Z,78.60
2017-09-23T18:49:03.674Z,82.30
2017-09-23T18:54:05.415Z,82.20
2017-09-23T18:59:07.304Z,83.60
2017-09-23T19:04:09.197Z,82.30
2017-09-23T19:09:12.231Z,82.00
2017-09-23T19:14:14.166Z,81.60
2017-09-23T19:19:16.651Z,81.40
2017-09-23T19:24:20.925Z,83.80
2017-09-23T19:29:22.870Z,83.80
2017-09-23T19:34:25.867Z,85.30
2017-09-23T19:39:27.653Z,85.20
2017-09-23T19:44:29.606Z,86.80
2017-09-23T19:49:31.507Z,86.30
2017-09-23T19:54:33.993Z,87.00
2017-09-23T19:59:36.487Z,86.60
2017-09-23T20:04:38.978Z,86.60
2017-09-23T20:09:40.880Z,86.60
2017-09-23T20:14:42.732Z,87.50
2017-09-23T20:19:45.228Z,89.90
2017-09-23T20:24:47.437Z,89.80
2017-09-23T20:29:49.276Z,89.40
2017-09-23T20:34:51.126Z,91.00
2017-09-23T20:39:52.950Z,90.30
2017-09-23T20:44:55.456Z,91.10
2017-09-23T20:49:57.304Z,91.10
2017-09-23T20:54:59.099Z,91.20
2017-09-23T21:00:01.108Z,92.10
2017-09-23T21:05:02.889Z,91.80
2017-09-23T21:10:04.720Z,92.50
2017-09-23T21:15:09.298Z,93.30
2017-09-23T21:20:11.142Z,93.20
2017-09-23T21:25:12.910Z,94.20
2017-09-23T21:30:14.779Z,96.20
2017-09-23T21:35:16.703Z,95.30
2017-09-23T21:40:18.540Z,95.60
2017-09-23T21:45:22.071Z,95.70
2017-09-23T21:50:23.888Z,95.70
2017-09-23T21:55:26.738Z,95.70
2017-09-23T22:00:29.300Z,96.60
2017-09-23T22:05:31.128Z,96.50
2017-09-23T22:10:33.925Z,97.80
2017-09-23T22:15:35.684Z,97.20
2017-09-23T22:20:38.184Z,97.30
2017-09-23T22:25:40.078Z,97.30
2017-09-23T22:30:42.216Z,97.40
2017-09-23T22:35:45.055Z,98.20
2017-09-23T22:40:47.732Z,98.00
2017-09-23T22:45:49.496Z,97.90
2017-09-23T22:50:52.300Z,98.70
2017-09-23T22:55:54.792Z,99.90
2017-09-23T23:00:56.584Z,99.90
2017-09-23T23:05:58.448Z,99.90
2017-09-23T23:11:00.940Z,99.90
2017-09-23T23:16:05.485Z,99.90
2017-09-23T23:21:09.007Z,99.90
2017-09-23T23:26:10.873Z,99.90
2017-09-23T23:31:13.534Z,99.90
2017-09-23T23:36:15.469Z,99.90
2017-09-23T23:41:17.742Z,99.90
2017-09-23T23:46:20.233Z,99.90
2017-09-23T23:51:22.112Z,99.90
2017-09-23T23:56:24.871Z,99.90
